sensor_id;sensor_type;location;lat;lon;timestamp;P1;durP1;ratioP1;P2;durP2;ratioP2
71910;SDS011;59783;52.232;5.170;2023-02-28T00:02:06;22.27;;;20.10;;
71910;SDS011;59783;52.232;5.170;2023-02-28T00:04:31;21.50;;;19.27;;
71910;SDS011;59783;52.232;5.170;2023-02-28T00:06:56;21.20;;;19.10;;
71910;SDS011;59783;52.232;5.170;2023-02-28T00:09:21;23.33;;;20.87;;
71910;SDS011;59783;52.232;5.170;2023-02-28T00:11:47;22.47;;;20.27;;
71910;SDS011;59783;52.232;5.170;2023-02-28T00:14:12;21.10;;;18.90;;
71910;SDS011;59783;52.232;5.170;2023-02-28T00:16:37;21.40;;;19.10;;
71910;SDS011;59783;52.232;5.170;2023-02-28T00:19:02;22.73;;;18.90;;
71910;SDS011;59783;52.232;5.170;2023-02-28T00:21:27;21.27;;;19.10;;
71910;SDS011;59783;52.232;5.170;2023-02-28T00:23:53;22.30;;;19.75;;
71910;SDS011;59783;52.232;5.170;2023-02-28T00:26:18;20.80;;;18.60;;
71910;SDS011;59783;52.232;5.170;2023-02-28T00:28:43;22.70;;;20.13;;
71910;SDS011;59783;52.232;5.170;2023-02-28T00:31:08;21.37;;;19.03;;
71910;SDS011;59783;52.232;5.170;2023-02-28T00:33:33;21.77;;;19.47;;
71910;SDS011;59783;52.232;5.170;2023-02-28T00:36:06;22.20;;;20.10;;
71910;SDS011;59783;52.232;5.170;2023-02-28T00:38:31;21.63;;;19.48;;
71910;SDS011;59783;52.232;5.170;2023-02-28T00:40:56;24.83;;;22.43;;
71910;SDS011;59783;52.232;5.170;2023-02-28T00:43:21;21.90;;;19.80;;
71910;SDS011;59783;52.232;5.170;2023-02-28T00:45:47;21.73;;;19.63;;
71910;SDS011;59783;52.232;5.170;2023-02-28T00:48:12;21.97;;;19.87;;
71910;SDS011;59783;52.232;5.170;2023-02-28T00:50:37;22.83;;;20.70;;
71910;SDS011;59783;52.232;5.170;2023-02-28T00:53:02;20.13;;;17.67;;
71910;SDS011;59783;52.232;5.170;2023-02-28T00:55:27;21.30;;;19.13;;
71910;SDS011;59783;52.232;5.170;2023-02-28T00:57:53;21.50;;;19.27;;
71910;SDS011;59783;52.232;5.170;2023-02-28T01:00:18;21.37;;;19.27;;
71910;SDS011;59783;52.232;5.170;2023-02-28T01:02:43;19.75;;;17.70;;
71910;SDS011;59783;52.232;5.170;2023-02-28T01:05:08;21.90;;;19.67;;
71910;SDS011;59783;52.232;5.170;2023-02-28T01:07:33;22.80;;;19.40;;
71910;SDS011;59783;52.232;5.170;2023-02-28T01:09:59;22.27;;;20.00;;
71910;SDS011;59783;52.232;5.170;2023-02-28T01:12:24;23.27;;;19.93;;
71910;SDS011;59783;52.232;5.170;2023-02-28T01:14:49;21.33;;;19.07;;
71910;SDS011;59783;52.232;5.170;2023-02-28T01:17:14;21.43;;;19.23;;
71910;SDS011;59783;52.232;5.170;2023-02-28T01:19:39;21.47;;;19.17;;
71910;SDS011;59783;52.232;5.170;2023-02-28T01:22:05;21.63;;;19.43;;
71910;SDS011;59783;52.232;5.170;2023-02-28T01:24:31;22.33;;;20.13;;
71910;SDS011;59783;52.232;5.170;2023-02-28T01:26:56;20.58;;;18.38;;
71910;SDS011;59783;52.232;5.170;2023-02-28T01:29:21;23.43;;;19.30;;
71910;SDS011;59783;52.232;5.170;2023-02-28T01:31:46;20.23;;;17.97;;
71910;SDS011;59783;52.232;5.170;2023-02-28T01:34:12;21.50;;;19.30;;
71910;SDS011;59783;52.232;5.170;2023-02-28T01:36:37;19.50;;;17.50;;
71910;SDS011;59783;52.232;5.170;2023-02-28T01:39:02;22.17;;;19.30;;
71910;SDS011;59783;52.232;5.170;2023-02-28T01:41:29;21.48;;;18.83;;
71910;SDS011;59783;52.232;5.170;2023-02-28T01:43:58;24.80;;;20.80;;
71910;SDS011;59783;52.232;5.170;2023-02-28T01:46:24;22.23;;;19.85;;
71910;SDS011;59783;52.232;5.170;2023-02-28T01:48:59;21.27;;;19.07;;
71910;SDS011;59783;52.232;5.170;2023-02-28T01:51:26;22.30;;;20.08;;
71910;SDS011;59783;52.232;5.170;2023-02-28T01:53:59;22.10;;;20.02;;
71910;SDS011;59783;52.232;5.170;2023-02-28T01:56:26;21.80;;;19.55;;
71910;SDS011;59783;52.232;5.170;2023-02-28T01:58:53;21.33;;;19.33;;
71910;SDS011;59783;52.232;5.170;2023-02-28T02:01:19;20.65;;;18.52;;
71910;SDS011;59783;52.232;5.170;2023-02-28T02:03:48;21.23;;;18.40;;
71910;SDS011;59783;52.232;5.170;2023-02-28T02:06:28;20.98;;;18.77;;
71910;SDS011;59783;52.232;5.170;2023-02-28T02:08:54;25.00;;;22.65;;
71910;SDS011;59783;52.232;5.170;2023-02-28T02:11:20;23.63;;;21.25;;
71910;SDS011;59783;52.232;5.170;2023-02-28T02:31:28;22.20;;;19.90;;
71910;SDS011;59783;52.232;5.170;2023-02-28T02:34:17;21.95;;;19.75;;
71910;SDS011;59783;52.232;5.170;2023-02-28T02:36:46;24.02;;;21.60;;
71910;SDS011;59783;52.232;5.170;2023-02-28T02:39:38;21.42;;;19.30;;
71910;SDS011;59783;52.232;5.170;2023-02-28T02:42:09;23.50;;;21.10;;
71910;SDS011;59783;52.232;5.170;2023-02-28T02:44:40;22.63;;;20.30;;
71910;SDS011;59783;52.232;5.170;2023-02-28T02:47:15;22.60;;;20.30;;
71910;SDS011;59783;52.232;5.170;2023-02-28T02:49:43;20.92;;;18.73;;
71910;SDS011;59783;52.232;5.170;2023-02-28T02:52:11;28.92;;;21.10;;
71910;SDS011;59783;52.232;5.170;2023-02-28T02:54:39;22.88;;;19.38;;
71910;SDS011;59783;52.232;5.170;2023-02-28T02:57:07;21.00;;;18.05;;
71910;SDS011;59783;52.232;5.170;2023-02-28T02:59:33;24.73;;;22.40;;
71910;SDS011;59783;52.232;5.170;2023-02-28T03:02:01;22.42;;;20.25;;
71910;SDS011;59783;52.232;5.170;2023-02-28T03:04:28;23.27;;;20.85;;
71910;SDS011;59783;52.232;5.170;2023-02-28T03:06:56;22.98;;;20.65;;
71910;SDS011;59783;52.232;5.170;2023-02-28T03:09:21;23.60;;;21.03;;
71910;SDS011;59783;52.232;5.170;2023-02-28T03:11:47;24.02;;;21.70;;
71910;SDS011;59783;52.232;5.170;2023-02-28T03:16:59;23.45;;;21.05;;
71910;SDS011;59783;52.232;5.170;2023-02-28T03:22:14;22.17;;;19.85;;
71910;SDS011;59783;52.232;5.170;2023-02-28T03:24:43;22.95;;;20.52;;
71910;SDS011;59783;52.232;5.170;2023-02-28T03:27:16;23.73;;;21.15;;
71910;SDS011;59783;52.232;5.170;2023-02-28T03:29:51;23.50;;;20.58;;
71910;SDS011;59783;52.232;5.170;2023-02-28T03:32:25;23.23;;;20.90;;
71910;SDS011;59783;52.232;5.170;2023-02-28T03:35:02;22.80;;;20.45;;
71910;SDS011;59783;52.232;5.170;2023-02-28T03:37:31;21.95;;;19.65;;
71910;SDS011;59783;52.232;5.170;2023-02-28T03:40:02;23.17;;;20.13;;
71910;SDS011;59783;52.232;5.170;2023-02-28T03:42:31;23.35;;;20.48;;
71910;SDS011;59783;52.232;5.170;2023-02-28T03:45:18;26.40;;;20.63;;
71910;SDS011;59783;52.232;5.170;2023-02-28T03:47:46;23.05;;;20.65;;
71910;SDS011;59783;52.232;5.170;2023-02-28T03:50:24;24.27;;;20.98;;
71910;SDS011;59783;52.232;5.170;2023-02-28T03:52:53;24.05;;;21.67;;
71910;SDS011;59783;52.232;5.170;2023-02-28T03:55:25;24.02;;;21.48;;
71910;SDS011;59783;52.232;5.170;2023-02-28T04:00:48;24.08;;;21.70;;
71910;SDS011;59783;52.232;5.170;2023-02-28T04:03:11;25.10;;;22.60;;
71910;SDS011;59783;52.232;5.170;2023-02-28T04:05:52;23.38;;;20.83;;
71910;SDS011;59783;52.232;5.170;2023-02-28T04:08:18;26.45;;;22.50;;
71910;SDS011;59783;52.232;5.170;2023-02-28T04:10:44;24.20;;;21.70;;
71910;SDS011;59783;52.232;5.170;2023-02-28T04:13:10;24.45;;;21.85;;
71910;SDS011;59783;52.232;5.170;2023-02-28T04:15:35;23.10;;;20.80;;
71910;SDS011;59783;52.232;5.170;2023-02-28T04:18:01;26.80;;;21.27;;
71910;SDS011;59783;52.232;5.170;2023-02-28T04:20:27;22.65;;;20.23;;
71910;SDS011;59783;52.232;5.170;2023-02-28T04:22:52;25.40;;;22.80;;
71910;SDS011;59783;52.232;5.170;2023-02-28T04:25:17;25.93;;;23.33;;
71910;SDS011;59783;52.232;5.170;2023-02-28T04:27:43;25.23;;;22.60;;
71910;SDS011;59783;52.232;5.170;2023-02-28T04:30:10;27.45;;;24.50;;
71910;SDS011;59783;52.232;5.170;2023-02-28T04:32:35;23.45;;;20.85;;
71910;SDS011;59783;52.232;5.170;2023-02-28T04:35:00;24.90;;;22.30;;
71910;SDS011;59783;52.232;5.170;2023-02-28T04:37:26;25.43;;;20.83;;
71910;SDS011;59783;52.232;5.170;2023-02-28T04:39:53;25.08;;;21.85;;
71910;SDS011;59783;52.232;5.170;2023-02-28T04:42:19;25.15;;;22.33;;
71910;SDS011;59783;52.232;5.170;2023-02-28T04:44:44;25.38;;;22.58;;
71910;SDS011;59783;52.232;5.170;2023-02-28T04:47:09;24.17;;;21.67;;
71910;SDS011;59783;52.232;5.170;2023-02-28T04:49:35;25.40;;;22.23;;
71910;SDS011;59783;52.232;5.170;2023-02-28T04:52:00;27.33;;;24.40;;
71910;SDS011;59783;52.232;5.170;2023-02-28T04:54:25;25.60;;;21.73;;
71910;SDS011;59783;52.232;5.170;2023-02-28T04:56:50;26.97;;;22.93;;
71910;SDS011;59783;52.232;5.170;2023-02-28T04:59:15;23.90;;;20.20;;
71910;SDS011;59783;52.232;5.170;2023-02-28T05:01:41;26.77;;;21.70;;
71910;SDS011;59783;52.232;5.170;2023-02-28T05:04:10;28.23;;;25.08;;
71910;SDS011;59783;52.232;5.170;2023-02-28T05:06:35;28.93;;;21.27;;
71910;SDS011;59783;52.232;5.170;2023-02-28T05:09:00;28.77;;;23.57;;
71910;SDS011;59783;52.232;5.170;2023-02-28T05:11:27;29.63;;;23.98;;
71910;SDS011;59783;52.232;5.170;2023-02-28T05:14:00;27.52;;;22.27;;
71910;SDS011;59783;52.232;5.170;2023-02-28T05:16:25;28.80;;;23.02;;
71910;SDS011;59783;52.232;5.170;2023-02-28T05:18:50;32.53;;;25.27;;
71910;SDS011;59783;52.232;5.170;2023-02-28T05:21:26;28.75;;;21.83;;
71910;SDS011;59783;52.232;5.170;2023-02-28T05:23:52;24.38;;;21.70;;
71910;SDS011;59783;52.232;5.170;2023-02-28T05:26:18;25.75;;;23.08;;
71910;SDS011;59783;52.232;5.170;2023-02-28T05:28:43;25.60;;;22.75;;
71910;SDS011;59783;52.232;5.170;2023-02-28T05:31:12;26.97;;;21.10;;
71910;SDS011;59783;52.232;5.170;2023-02-28T05:33:37;23.35;;;19.90;;
71910;SDS011;59783;52.232;5.170;2023-02-28T05:36:02;22.92;;;20.63;;
71910;SDS011;59783;52.232;5.170;2023-02-28T05:38:28;25.98;;;21.65;;
71910;SDS011;59783;52.232;5.170;2023-02-28T05:40:53;24.80;;;22.30;;
71910;SDS011;59783;52.232;5.170;2023-02-28T05:43:18;24.90;;;22.27;;
71910;SDS011;59783;52.232;5.170;2023-02-28T05:45:43;24.63;;;22.07;;
71910;SDS011;59783;52.232;5.170;2023-02-28T05:48:09;22.33;;;20.00;;
71910;SDS011;59783;52.232;5.170;2023-02-28T05:50:34;23.73;;;21.42;;
71910;SDS011;59783;52.232;5.170;2023-02-28T05:52:59;24.43;;;22.03;;
71910;SDS011;59783;52.232;5.170;2023-02-28T05:55:24;22.13;;;19.80;;
71910;SDS011;59783;52.232;5.170;2023-02-28T05:57:49;21.67;;;19.43;;
71910;SDS011;59783;52.232;5.170;2023-02-28T06:00:15;22.10;;;19.90;;
71910;SDS011;59783;52.232;5.170;2023-02-28T06:02:40;22.23;;;19.98;;
71910;SDS011;59783;52.232;5.170;2023-02-28T06:05:09;20.97;;;18.63;;
71910;SDS011;59783;52.232;5.170;2023-02-28T06:07:37;23.17;;;20.13;;
71910;SDS011;59783;52.232;5.170;2023-02-28T06:10:02;22.43;;;20.23;;
71910;SDS011;59783;52.232;5.170;2023-02-28T06:12:28;22.77;;;20.55;;
71910;SDS011;59783;52.232;5.170;2023-02-28T06:14:53;21.53;;;19.43;;
71910;SDS011;59783;52.232;5.170;2023-02-28T06:17:18;22.63;;;20.23;;
71910;SDS011;59783;52.232;5.170;2023-02-28T06:19:43;23.27;;;21.00;;
71910;SDS011;59783;52.232;5.170;2023-02-28T06:22:08;22.33;;;20.23;;
71910;SDS011;59783;52.232;5.170;2023-02-28T06:24:33;22.80;;;20.47;;
71910;SDS011;59783;52.232;5.170;2023-02-28T06:26:59;23.55;;;20.20;;
71910;SDS011;59783;52.232;5.170;2023-02-28T06:29:29;23.35;;;21.02;;
71910;SDS011;59783;52.232;5.170;2023-02-28T06:31:54;21.45;;;19.15;;
71910;SDS011;59783;52.232;5.170;2023-02-28T06:34:20;22.95;;;20.67;;
71910;SDS011;59783;52.232;5.170;2023-02-28T06:36:45;22.20;;;20.00;;
71910;SDS011;59783;52.232;5.170;2023-02-28T06:39:10;21.13;;;18.20;;
71910;SDS011;59783;52.232;5.170;2023-02-28T06:41:35;21.20;;;18.57;;
71910;SDS011;59783;52.232;5.170;2023-02-28T06:44:08;23.65;;;21.15;;
71910;SDS011;59783;52.232;5.170;2023-02-28T06:46:35;21.35;;;18.98;;
71910;SDS011;59783;52.232;5.170;2023-02-28T06:49:01;22.47;;;20.00;;
71910;SDS011;59783;52.232;5.170;2023-02-28T06:51:26;21.07;;;18.87;;
71910;SDS011;59783;52.232;5.170;2023-02-28T06:53:52;24.13;;;21.77;;
71910;SDS011;59783;52.232;5.170;2023-02-28T06:56:17;25.83;;;20.57;;
71910;SDS011;59783;52.232;5.170;2023-02-28T06:58:45;22.90;;;20.55;;
71910;SDS011;59783;52.232;5.170;2023-02-28T07:03:36;23.33;;;20.92;;
71910;SDS011;59783;52.232;5.170;2023-02-28T07:06:01;21.30;;;19.05;;
71910;SDS011;59783;52.232;5.170;2023-02-28T07:08:27;20.50;;;18.38;;
71910;SDS011;59783;52.232;5.170;2023-02-28T07:10:53;24.17;;;21.83;;
71910;SDS011;59783;52.232;5.170;2023-02-28T07:13:18;21.30;;;19.10;;
71910;SDS011;59783;52.232;5.170;2023-02-28T07:15:44;21.37;;;19.10;;
71910;SDS011;59783;52.232;5.170;2023-02-28T07:18:09;22.63;;;20.23;;
71910;SDS011;59783;52.232;5.170;2023-02-28T07:20:34;22.63;;;20.27;;
71910;SDS011;59783;52.232;5.170;2023-02-28T07:23:00;22.25;;;20.02;;
71910;SDS011;59783;52.232;5.170;2023-02-28T07:25:26;22.63;;;20.23;;
71910;SDS011;59783;52.232;5.170;2023-02-28T07:27:51;22.45;;;20.05;;
71910;SDS011;59783;52.232;5.170;2023-02-28T07:30:17;22.98;;;20.35;;
71910;SDS011;59783;52.232;5.170;2023-02-28T07:32:42;22.30;;;19.05;;
71910;SDS011;59783;52.232;5.170;2023-02-28T07:35:07;22.40;;;19.93;;
71910;SDS011;59783;52.232;5.170;2023-02-28T07:37:32;23.80;;;19.48;;
71910;SDS011;59783;52.232;5.170;2023-02-28T07:40:01;21.45;;;19.20;;
71910;SDS011;59783;52.232;5.170;2023-02-28T07:42:29;22.33;;;19.95;;
71910;SDS011;59783;52.232;5.170;2023-02-28T07:44:54;23.75;;;21.20;;
71910;SDS011;59783;52.232;5.170;2023-02-28T07:47:19;23.43;;;20.40;;
71910;SDS011;59783;52.232;5.170;2023-02-28T07:49:44;24.17;;;21.70;;
71910;SDS011;59783;52.232;5.170;2023-02-28T07:52:10;26.53;;;23.73;;
71910;SDS011;59783;52.232;5.170;2023-02-28T07:54:35;25.37;;;21.30;;
71910;SDS011;59783;52.232;5.170;2023-02-28T07:57:00;25.23;;;22.47;;
71910;SDS011;59783;52.232;5.170;2023-02-28T07:59:25;25.87;;;22.57;;
71910;SDS011;59783;52.232;5.170;2023-02-28T08:01:50;25.48;;;22.90;;
71910;SDS011;59783;52.232;5.170;2023-02-28T08:04:16;26.42;;;23.80;;
71910;SDS011;59783;52.232;5.170;2023-02-28T08:06:41;25.60;;;23.08;;
71910;SDS011;59783;52.232;5.170;2023-02-28T08:09:06;24.33;;;21.83;;
71910;SDS011;59783;52.232;5.170;2023-02-28T08:11:32;26.87;;;22.57;;
71910;SDS011;59783;52.232;5.170;2023-02-28T08:13:57;26.70;;;24.10;;
71910;SDS011;59783;52.232;5.170;2023-02-28T08:16:22;25.07;;;22.40;;
71910;SDS011;59783;52.232;5.170;2023-02-28T08:18:48;27.00;;;24.27;;
71910;SDS011;59783;52.232;5.170;2023-02-28T08:21:14;26.40;;;22.45;;
71910;SDS011;59783;52.232;5.170;2023-02-28T08:23:39;24.70;;;22.10;;
71910;SDS011;59783;52.232;5.170;2023-02-28T08:26:04;26.70;;;23.97;;
71910;SDS011;59783;52.232;5.170;2023-02-28T08:28:30;25.03;;;22.17;;
71910;SDS011;59783;52.232;5.170;2023-02-28T08:30:55;25.60;;;21.45;;
71910;SDS011;59783;52.232;5.170;2023-02-28T08:33:20;27.17;;;24.37;;
71910;SDS011;59783;52.232;5.170;2023-02-28T08:35:45;27.30;;;24.40;;
71910;SDS011;59783;52.232;5.170;2023-02-28T08:38:11;26.80;;;23.17;;
71910;SDS011;59783;52.232;5.170;2023-02-28T08:40:36;25.03;;;21.70;;
71910;SDS011;59783;52.232;5.170;2023-02-28T08:43:01;26.17;;;23.47;;
71910;SDS011;59783;52.232;5.170;2023-02-28T08:45:26;29.47;;;23.73;;
71910;SDS011;59783;52.232;5.170;2023-02-28T08:47:51;26.92;;;24.20;;
71910;SDS011;59783;52.232;5.170;2023-02-28T08:50:18;27.58;;;23.85;;
71910;SDS011;59783;52.232;5.170;2023-02-28T08:52:44;25.33;;;22.73;;
71910;SDS011;59783;52.232;5.170;2023-02-28T08:55:09;26.43;;;23.67;;
71910;SDS011;59783;52.232;5.170;2023-02-28T08:57:34;27.10;;;24.25;;
71910;SDS011;59783;52.232;5.170;2023-02-28T08:59:59;27.07;;;24.17;;
71910;SDS011;59783;52.232;5.170;2023-02-28T09:02:26;26.90;;;23.67;;
71910;SDS011;59783;52.232;5.170;2023-02-28T09:04:51;26.47;;;23.53;;
71910;SDS011;59783;52.232;5.170;2023-02-28T09:07:16;25.67;;;22.97;;
71910;SDS011;59783;52.232;5.170;2023-02-28T09:09:42;26.20;;;23.40;;
71910;SDS011;59783;52.232;5.170;2023-02-28T09:12:18;25.15;;;21.52;;
71910;SDS011;59783;52.232;5.170;2023-02-28T09:14:44;25.17;;;22.48;;
71910;SDS011;59783;52.232;5.170;2023-02-28T09:17:09;28.00;;;22.53;;
71910;SDS011;59783;52.232;5.170;2023-02-28T09:19:34;24.83;;;22.23;;
71910;SDS011;59783;52.232;5.170;2023-02-28T09:21:59;25.33;;;21.87;;
71910;SDS011;59783;52.232;5.170;2023-02-28T09:24:24;23.53;;;21.07;;
71910;SDS011;59783;52.232;5.170;2023-02-28T09:26:50;27.63;;;23.15;;
71910;SDS011;59783;52.232;5.170;2023-02-28T09:29:15;25.63;;;23.13;;
71910;SDS011;59783;52.232;5.170;2023-02-28T09:31:41;23.33;;;20.98;;
71910;SDS011;59783;52.232;5.170;2023-02-28T09:34:06;24.37;;;21.97;;
71910;SDS011;59783;52.232;5.170;2023-02-28T09:36:32;25.83;;;23.33;;
71910;SDS011;59783;52.232;5.170;2023-02-28T09:38:58;26.48;;;23.75;;
71910;SDS011;59783;52.232;5.170;2023-02-28T09:41:24;25.87;;;23.37;;
71910;SDS011;59783;52.232;5.170;2023-02-28T09:43:59;22.70;;;20.40;;
71910;SDS011;59783;52.232;5.170;2023-02-28T09:46:35;26.40;;;23.90;;
71910;SDS011;59783;52.232;5.170;2023-02-28T09:49:05;22.45;;;20.25;;
71910;SDS011;59783;52.232;5.170;2023-02-28T09:54:17;26.55;;;24.02;;
71910;SDS011;59783;52.232;5.170;2023-02-28T09:56:44;25.17;;;22.67;;
71910;SDS011;59783;52.232;5.170;2023-02-28T09:59:17;24.83;;;22.38;;
71910;SDS011;59783;52.232;5.170;2023-02-28T10:01:57;23.75;;;21.38;;
71910;SDS011;59783;52.232;5.170;2023-02-28T10:07:07;22.98;;;20.58;;
71910;SDS011;59783;52.232;5.170;2023-02-28T10:09:42;23.83;;;21.40;;
71910;SDS011;59783;52.232;5.170;2023-02-28T10:12:08;24.90;;;22.30;;
71910;SDS011;59783;52.232;5.170;2023-02-28T10:14:34;25.80;;;23.38;;
71910;SDS011;59783;52.232;5.170;2023-02-28T10:17:12;23.38;;;20.98;;
71910;SDS011;59783;52.232;5.170;2023-02-28T10:24:40;23.67;;;21.30;;
71910;SDS011;59783;52.232;5.170;2023-02-28T10:27:16;25.77;;;23.17;;
71910;SDS011;59783;52.232;5.170;2023-02-28T10:29:42;24.20;;;21.88;;
71910;SDS011;59783;52.232;5.170;2023-02-28T10:32:08;26.38;;;23.58;;
71910;SDS011;59783;52.232;5.170;2023-02-28T10:34:35;25.50;;;23.17;;
71910;SDS011;59783;52.232;5.170;2023-02-28T10:37:01;24.03;;;21.73;;
71910;SDS011;59783;52.232;5.170;2023-02-28T10:39:36;25.50;;;23.08;;
71910;SDS011;59783;52.232;5.170;2023-02-28T10:42:02;23.95;;;21.55;;
71910;SDS011;59783;52.232;5.170;2023-02-28T10:44:27;22.77;;;20.48;;
71910;SDS011;59783;52.232;5.170;2023-02-28T10:46:53;22.60;;;20.13;;
71910;SDS011;59783;52.232;5.170;2023-02-28T10:49:22;24.50;;;22.08;;
71910;SDS011;59783;52.232;5.170;2023-02-28T10:51:49;23.83;;;21.33;;
71910;SDS011;59783;52.232;5.170;2023-02-28T10:54:18;20.90;;;18.85;;
71910;SDS011;59783;52.232;5.170;2023-02-28T10:56:43;21.33;;;19.13;;
71910;SDS011;59783;52.232;5.170;2023-02-28T11:01:43;24.13;;;21.75;;
71910;SDS011;59783;52.232;5.170;2023-02-28T11:06:44;22.63;;;20.27;;
71910;SDS011;59783;52.232;5.170;2023-02-28T11:09:18;22.67;;;20.15;;
71910;SDS011;59783;52.232;5.170;2023-02-28T11:11:46;24.02;;;21.73;;
71910;SDS011;59783;52.232;5.170;2023-02-28T11:16:46;23.55;;;21.30;;
71910;SDS011;59783;52.232;5.170;2023-02-28T11:19:45;21.63;;;19.50;;
71910;SDS011;59783;52.232;5.170;2023-02-28T11:22:03;22.10;;;19.88;;
71910;SDS011;59783;52.232;5.170;2023-02-28T11:24:33;22.05;;;19.98;;
71910;SDS011;59783;52.232;5.170;2023-02-28T11:27:00;21.05;;;19.05;;
71910;SDS011;59783;52.232;5.170;2023-02-28T11:29:26;21.07;;;19.07;;
71910;SDS011;59783;52.232;5.170;2023-02-28T11:32:00;24.80;;;22.50;;
71910;SDS011;59783;52.232;5.170;2023-02-28T11:34:27;21.95;;;19.92;;
71910;SDS011;59783;52.232;5.170;2023-02-28T11:36:53;20.65;;;18.67;;
71910;SDS011;59783;52.232;5.170;2023-02-28T11:39:18;21.73;;;19.63;;
71910;SDS011;59783;52.232;5.170;2023-02-28T11:46:54;24.15;;;21.77;;
71910;SDS011;59783;52.232;5.170;2023-02-28T11:57:32;21.90;;;19.60;;
71910;SDS011;59783;52.232;5.170;2023-02-28T12:07:16;22.38;;;20.17;;
71910;SDS011;59783;52.232;5.170;2023-02-28T12:09:56;22.10;;;19.88;;
71910;SDS011;59783;52.232;5.170;2023-02-28T12:18:11;24.25;;;21.85;;
71910;SDS011;59783;52.232;5.170;2023-02-28T12:27:44;21.23;;;19.13;;
71910;SDS011;59783;52.232;5.170;2023-02-28T12:30:19;22.10;;;20.00;;
71910;SDS011;59783;52.232;5.170;2023-02-28T12:32:47;19.92;;;18.00;;
71910;SDS011;59783;52.232;5.170;2023-02-28T12:35:15;20.67;;;18.50;;
71910;SDS011;59783;52.232;5.170;2023-02-28T12:37:42;21.60;;;19.40;;
71910;SDS011;59783;52.232;5.170;2023-02-28T12:40:12;21.23;;;19.10;;
71910;SDS011;59783;52.232;5.170;2023-02-28T12:42:45;22.38;;;20.27;;
71910;SDS011;59783;52.232;5.170;2023-02-28T12:45:20;23.48;;;20.42;;
71910;SDS011;59783;52.232;5.170;2023-02-28T12:47:52;24.00;;;21.80;;
71910;SDS011;59783;52.232;5.170;2023-02-28T12:50:20;23.17;;;20.98;;
71910;SDS011;59783;52.232;5.170;2023-02-28T12:55:21;23.67;;;21.40;;
71910;SDS011;59783;52.232;5.170;2023-02-28T12:57:53;23.10;;;20.88;;
71910;SDS011;59783;52.232;5.170;2023-02-28T13:00:24;21.73;;;19.63;;
71910;SDS011;59783;52.232;5.170;2023-02-28T13:05:49;21.55;;;19.35;;
71910;SDS011;59783;52.232;5.170;2023-02-28T13:08:47;23.52;;;21.30;;
71910;SDS011;59783;52.232;5.170;2023-02-28T13:11:06;24.02;;;21.80;;
71910;SDS011;59783;52.232;5.170;2023-02-28T13:13:31;21.77;;;19.48;;
71910;SDS011;59783;52.232;5.170;2023-02-28T13:19:07;21.45;;;19.48;;
71910;SDS011;59783;52.232;5.170;2023-02-28T13:21:24;24.33;;;22.00;;
71910;SDS011;59783;52.232;5.170;2023-02-28T13:26:20;22.30;;;20.27;;
71910;SDS011;59783;52.232;5.170;2023-02-28T13:31:14;23.25;;;20.98;;
71910;SDS011;59783;52.232;5.170;2023-02-28T13:38:49;22.30;;;20.30;;
71910;SDS011;59783;52.232;5.170;2023-02-28T13:46:30;21.80;;;19.70;;
71910;SDS011;59783;52.232;5.170;2023-02-28T13:48:55;22.55;;;20.52;;
71910;SDS011;59783;52.232;5.170;2023-02-28T13:51:28;22.45;;;20.33;;
71910;SDS011;59783;52.232;5.170;2023-02-28T13:54:02;24.38;;;22.17;;
71910;SDS011;59783;52.232;5.170;2023-02-28T13:56:31;22.50;;;20.27;;
71910;SDS011;59783;52.232;5.170;2023-02-28T13:59:07;23.98;;;21.77;;
71910;SDS011;59783;52.232;5.170;2023-02-28T14:01:47;24.15;;;21.92;;
71910;SDS011;59783;52.232;5.170;2023-02-28T14:06:56;21.85;;;19.80;;
71910;SDS011;59783;52.232;5.170;2023-02-28T14:09:27;21.55;;;19.45;;
71910;SDS011;59783;52.232;5.170;2023-02-28T14:11:53;24.02;;;21.73;;
71910;SDS011;59783;52.232;5.170;2023-02-28T14:16:59;24.52;;;22.33;;
71910;SDS011;59783;52.232;5.170;2023-02-28T14:19:27;22.90;;;20.77;;
71910;SDS011;59783;52.232;5.170;2023-02-28T14:22:12;23.38;;;21.15;;
71910;SDS011;59783;52.232;5.170;2023-02-28T14:37:33;22.73;;;20.58;;
71910;SDS011;59783;52.232;5.170;2023-02-28T14:40:01;21.02;;;19.05;;
71910;SDS011;59783;52.232;5.170;2023-02-28T14:44:54;23.50;;;21.40;;
71910;SDS011;59783;52.232;5.170;2023-02-28T14:47:21;24.30;;;22.10;;
71910;SDS011;59783;52.232;5.170;2023-02-28T14:49:48;22.05;;;20.05;;
71910;SDS011;59783;52.232;5.170;2023-02-28T14:52:31;23.23;;;21.13;;
71910;SDS011;59783;52.232;5.170;2023-02-28T14:54:58;22.73;;;20.60;;
71910;SDS011;59783;52.232;5.170;2023-02-28T14:57:28;23.67;;;21.45;;
71910;SDS011;59783;52.232;5.170;2023-02-28T15:00:01;21.25;;;19.23;;
71910;SDS011;59783;52.232;5.170;2023-02-28T15:02:30;21.70;;;19.60;;
71910;SDS011;59783;52.232;5.170;2023-02-28T15:04:59;22.75;;;20.65;;
71910;SDS011;59783;52.232;5.170;2023-02-28T15:07:25;23.48;;;21.38;;
71910;SDS011;59783;52.232;5.170;2023-02-28T15:10:06;23.02;;;20.83;;
71910;SDS011;59783;52.232;5.170;2023-02-28T15:12:31;25.23;;;22.83;;
71910;SDS011;59783;52.232;5.170;2023-02-28T15:14:57;23.03;;;20.83;;
71910;SDS011;59783;52.232;5.170;2023-02-28T15:17:23;24.90;;;22.70;;
71910;SDS011;59783;52.232;5.170;2023-02-28T15:19:50;22.50;;;20.40;;
71910;SDS011;59783;52.232;5.170;2023-02-28T15:22:18;23.10;;;20.98;;
71910;SDS011;59783;52.232;5.170;2023-02-28T15:24:45;23.98;;;21.67;;
71910;SDS011;59783;52.232;5.170;2023-02-28T15:27:14;24.25;;;21.00;;
71910;SDS011;59783;52.232;5.170;2023-02-28T15:32:06;24.08;;;21.73;;
71910;SDS011;59783;52.232;5.170;2023-02-28T15:36:57;25.27;;;23.07;;
71910;SDS011;59783;52.232;5.170;2023-02-28T15:39:23;23.03;;;20.30;;
71910;SDS011;59783;52.232;5.170;2023-02-28T15:41:49;25.02;;;22.83;;
71910;SDS011;59783;52.232;5.170;2023-02-28T15:44:15;22.42;;;20.40;;
71910;SDS011;59783;52.232;5.170;2023-02-28T15:46:58;23.77;;;21.60;;
71910;SDS011;59783;52.232;5.170;2023-02-28T15:49:24;25.35;;;22.95;;
71910;SDS011;59783;52.232;5.170;2023-02-28T15:51:50;22.58;;;20.48;;
71910;SDS011;59783;52.232;5.170;2023-02-28T15:54:20;23.85;;;21.63;;
71910;SDS011;59783;52.232;5.170;2023-02-28T15:56:47;23.52;;;21.33;;
71910;SDS011;59783;52.232;5.170;2023-02-28T15:59:18;23.15;;;20.80;;
71910;SDS011;59783;52.232;5.170;2023-02-28T16:01:45;24.23;;;22.05;;
71910;SDS011;59783;52.232;5.170;2023-02-28T16:04:15;24.10;;;21.88;;
71910;SDS011;59783;52.232;5.170;2023-02-28T16:06:41;24.67;;;22.30;;
71910;SDS011;59783;52.232;5.170;2023-02-28T16:09:08;22.50;;;20.30;;
71910;SDS011;59783;52.232;5.170;2023-02-28T16:11:35;22.08;;;19.95;;
71910;SDS011;59783;52.232;5.170;2023-02-28T16:14:02;25.88;;;23.55;;
71910;SDS011;59783;52.232;5.170;2023-02-28T16:16:28;24.95;;;22.63;;
71910;SDS011;59783;52.232;5.170;2023-02-28T16:18:53;23.73;;;21.60;;
71910;SDS011;59783;52.232;5.170;2023-02-28T16:21:19;23.02;;;20.92;;
71910;SDS011;59783;52.232;5.170;2023-02-28T16:23:45;26.80;;;24.45;;
71910;SDS011;59783;52.232;5.170;2023-02-28T16:26:16;24.70;;;22.33;;
71910;SDS011;59783;52.232;5.170;2023-02-28T16:28:43;22.42;;;20.33;;
71910;SDS011;59783;52.232;5.170;2023-02-28T16:31:09;24.27;;;21.95;;
71910;SDS011;59783;52.232;5.170;2023-02-28T16:33:41;24.85;;;22.45;;